createdAt,value
2019-04-22T00:00:36.449Z,101970.86
2019-04-22T00:04:00.687Z,101970.13
2019-04-22T00:07:30.737Z,101970.17
2019-04-22T00:10:40.309Z,101963.21
2019-04-22T00:14:00.748Z,101966.47
2019-04-22T00:17:26.300Z,101968.45
2019-04-22T00:20:30.692Z,101968.11
2019-04-22T00:23:39.221Z,101964.55
2019-04-22T00:26:51.858Z,101959.64
2019-04-22T00:33:19.133Z,101962.07
2019-04-22T00:36:23.587Z,101956.47
2019-04-22T00:42:50.189Z,101958.71
2019-04-22T00:45:59.101Z,101955.15
2019-04-22T00:49:52.786Z,101952.33
2019-04-22T00:52:34.675Z,101951.31
2019-04-22T00:59:17.267Z,101949.33
2019-04-22T01:05:42.304Z,101943.62
2019-04-22T01:08:57.893Z,101947.73
2019-04-22T01:12:04.698Z,101946.89
2019-04-22T01:15:14.852Z,101944.31
2019-04-22T01:18:15.741Z,101950.41
2019-04-22T01:21:37.087Z,101941.59
2019-04-22T01:24:38.822Z,101938.37
2019-04-22T01:27:44.846Z,101938.88
2019-04-22T01:30:51.487Z,101940.15
2019-04-22T01:34:05.449Z,101939.14
2019-04-22T01:37:20.327Z,101937.45
2019-04-22T01:40:42.914Z,101941.68
2019-04-22T01:43:59.240Z,101942.19
2019-04-22T01:47:00.039Z,101936.30
2019-04-22T01:50:11.898Z,101933.92
2019-04-22T01:53:19.381Z,101933.08
2019-04-22T01:56:36.507Z,101936.47
2019-04-22T01:59:35.563Z,101939.88
2019-04-22T02:03:04.469Z,101927.86
2019-04-22T02:06:30.420Z,101929.42
2019-04-22T02:09:49.590Z,101931.45
2019-04-22T02:13:02.037Z,101936.21
2019-04-22T02:16:27.321Z,101929.11
2019-04-22T02:19:22.804Z,101929.78
2019-04-22T02:22:47.628Z,101925.20
2019-04-22T02:25:47.416Z,101928.95
2019-04-22T02:28:56.454Z,101924.21
2019-04-22T02:32:09.985Z,101926.08
2019-04-22T02:35:23.753Z,101921.55
2019-04-22T02:38:44.588Z,101913.06
2019-04-22T02:41:31.249Z,101909.86
2019-04-22T02:44:47.074Z,101909.52
2019-04-22T02:47:59.103Z,101903.77
2019-04-22T03:00:45.902Z,101891.59
2019-04-22T03:04:01.632Z,101892.45
2019-04-22T03:07:05.461Z,101894.46
2019-04-22T03:10:30.110Z,101893.97
2019-04-22T03:13:40.388Z,101886.52
2019-04-22T03:17:00.547Z,101894.80
2019-04-22T03:23:16.420Z,101891.78
2019-04-22T03:26:18.850Z,101886.70
2019-04-22T03:33:36.195Z,101882.98
2019-04-22T03:45:46.613Z,101875.00
2019-04-22T03:49:17.436Z,101876.02
2019-04-22T03:52:16.159Z,101877.37
2019-04-22T03:55:46.945Z,101868.77
2019-04-22T03:58:56.924Z,101869.77
2019-04-22T04:02:02.056Z,101864.17
2019-04-22T04:05:10.730Z,101864.84
2019-04-22T04:08:29.420Z,101864.35
2019-04-22T04:11:45.561Z,101855.73
2019-04-22T04:14:47.095Z,101860.48
2019-04-22T04:30:46.608Z,101856.42
2019-04-22T04:33:54.043Z,101858.46
2019-04-22T04:37:22.654Z,101862.84
2019-04-22T04:40:20.702Z,101858.28
2019-04-22T04:43:26.277Z,101860.83
2019-04-22T04:46:45.144Z,101863.00
2019-04-22T04:53:09.183Z,101866.72
2019-04-22T04:56:10.821Z,101865.02
2019-04-22T04:59:27.782Z,101865.71
2019-04-22T05:02:40.001Z,101859.80
2019-04-22T05:15:17.667Z,101862.20
2019-04-22T05:21:40.723Z,101854.23
2019-04-22T05:24:34.735Z,101860.13
2019-04-22T05:27:49.122Z,101863.31
2019-04-22T05:31:16.003Z,101864.67
2019-04-22T05:34:26.466Z,101852.88
2019-04-22T05:37:38.411Z,101852.92
2019-04-22T05:40:40.791Z,101854.86
2019-04-22T05:43:58.566Z,101856.86
2019-04-22T05:47:08.065Z,101859.20
2019-04-22T05:50:21.832Z,101856.78
2019-04-22T05:53:28.952Z,101853.16
2019-04-22T05:56:37.573Z,101859.61
2019-04-22T05:59:56.975Z,101860.70
2019-04-22T06:06:15.195Z,101857.83
2019-04-22T06:09:24.853Z,101860.73
2019-04-22T06:12:40.485Z,101856.09
2019-04-22T06:15:52.867Z,101859.50
2019-04-22T06:19:21.227Z,101866.77
2019-04-22T06:22:25.265Z,101871.59
2019-04-22T06:25:47.891Z,101870.34
2019-04-22T06:28:40.759Z,101870.24
2019-04-22T06:32:15.163Z,101859.59
2019-04-22T06:35:09.737Z,101867.45
2019-04-22T06:38:25.667Z,101871.86
2019-04-22T06:41:21.191Z,101866.27
2019-04-22T06:44:29.913Z,101861.51
2019-04-22T06:47:51.240Z,101867.34
2019-04-22T06:54:03.352Z,101860.52
2019-04-22T06:57:11.557Z,101864.50
2019-04-22T07:00:28.768Z,101859.84
2019-04-22T07:03:41.661Z,101857.31
2019-04-22T07:06:48.680Z,101859.96
2019-04-22T07:10:18.107Z,101856.30
2019-04-22T07:13:21.205Z,101856.16
2019-04-22T07:16:26.125Z,101854.82
2019-04-22T07:19:36.126Z,101863.98
2019-04-22T07:22:45.565Z,101856.19
2019-04-22T07:25:56.550Z,101856.58
2019-04-22T07:29:21.803Z,101852.66
2019-04-22T07:32:18.622Z,101846.41
2019-04-22T07:35:30.806Z,101859.94
2019-04-22T07:38:31.382Z,101866.82
2019-04-22T07:41:48.960Z,101857.12
2019-04-22T07:44:54.859Z,101865.45
2019-04-22T07:48:22.256Z,101855.20
2019-04-22T07:51:32.912Z,101854.89
2019-04-22T07:54:29.195Z,101854.47
2019-04-22T07:57:39.575Z,101854.77
2019-04-22T08:00:53.583Z,101848.06
2019-04-22T08:04:13.135Z,101845.64
2019-04-22T08:07:18.069Z,101852.52
2019-04-22T08:13:31.141Z,101834.67
2019-04-22T08:16:43.864Z,101840.13
2019-04-22T08:19:59.255Z,101841.67
2019-04-22T08:23:04.831Z,101857.59
2019-04-22T08:26:13.233Z,101842.98
2019-04-22T08:29:26.601Z,101852.12
2019-04-22T08:32:34.520Z,101840.17
2019-04-22T08:36:03.288Z,101847.59
2019-04-22T08:39:03.848Z,101841.01
2019-04-22T08:42:05.031Z,101836.54
2019-04-22T08:45:14.359Z,101840.65
2019-04-22T08:48:24.869Z,101838.16
2019-04-22T08:51:49.412Z,101828.69
2019-04-22T08:55:04.080Z,101838.78
2019-04-22T09:01:11.643Z,101828.41
2019-04-22T09:04:11.949Z,101824.15
2019-04-22T09:07:30.274Z,101827.86
2019-04-22T09:13:50.640Z,101819.07
2019-04-22T09:17:02.358Z,101828.89
2019-04-22T09:23:32.247Z,101807.70
2019-04-22T09:26:41.931Z,101796.14
2019-04-22T09:29:53.226Z,101797.30
2019-04-22T09:33:06.319Z,101801.02
2019-04-22T09:36:16.748Z,101787.31
2019-04-22T09:39:23.083Z,101789.52
2019-04-22T09:42:34.723Z,101778.83
2019-04-22T09:45:43.333Z,101778.44
2019-04-22T09:49:00.313Z,101784.40
2019-04-22T09:52:08.434Z,101772.73
2019-04-22T09:58:27.454Z,101770.57
2019-04-22T10:01:38.909Z,101761.00
2019-04-22T10:04:48.390Z,101761.03
2019-04-22T10:07:59.600Z,101759.80
2019-04-22T10:11:14.329Z,101742.31
2019-04-22T10:14:23.871Z,101743.54
2019-04-22T10:17:27.635Z,101738.53
2019-04-22T10:20:38.112Z,101734.41
2019-04-22T10:23:53.408Z,101730.78
2019-04-22T10:27:00.022Z,101737.30
2019-04-22T10:30:15.001Z,101733.20
2019-04-22T10:33:36.274Z,101724.63
2019-04-22T10:36:31.069Z,101727.14
2019-04-22T10:39:52.787Z,101723.45
2019-04-22T10:42:53.836Z,101718.06
2019-04-22T10:46:03.972Z,101717.53
2019-04-22T10:49:12.817Z,101720.32
2019-04-22T10:52:21.669Z,101710.80
2019-04-22T10:55:31.799Z,101699.11
2019-04-22T11:09:18.350Z,101689.67
2019-04-22T11:12:31.980Z,101684.47
2019-04-22T11:15:40.550Z,101680.20
2019-04-22T11:18:49.591Z,101678.22
2019-04-22T11:22:07.746Z,101668.85
2019-04-22T11:25:09.845Z,101664.66
2019-04-22T11:28:56.037Z,101660.28
2019-04-22T11:32:06.312Z,101671.05
2019-04-22T11:35:16.160Z,101654.63
2019-04-22T11:38:24.978Z,101656.61
2019-04-22T11:41:33.915Z,101657.86
2019-04-22T11:44:43.237Z,101646.47
2019-04-22T11:48:11.206Z,101650.37
2019-04-22T11:51:20.034Z,101640.41
2019-04-22T11:54:28.983Z,101630.69
2019-04-22T11:57:39.094Z,101635.92
2019-04-22T12:00:49.358Z,101624.84
2019-04-22T12:03:58.251Z,101618.41
2019-04-22T12:07:08.683Z,101628.49
2019-04-22T12:10:29.841Z,101617.21
2019-04-22T12:13:39.949Z,101611.71
2019-04-22T12:16:49.759Z,101601.60
2019-04-22T12:20:20.207Z,101596.03
2019-04-22T12:23:29.996Z,101592.45
2019-04-22T12:26:40.060Z,101606.22
2019-04-22T12:29:49.088Z,101595.79
2019-04-22T12:32:58.140Z,101584.75
2019-04-22T12:36:28.587Z,101575.63
2019-04-22T12:39:37.414Z,101573.23
2019-04-22T12:42:47.184Z,101582.14
2019-04-22T12:45:56.327Z,101561.41
2019-04-22T12:49:16.338Z,101560.22
2019-04-22T12:52:35.219Z,101555.25
2019-04-22T12:55:35.317Z,101560.11
2019-04-22T12:58:45.571Z,101542.80
2019-04-22T13:01:55.190Z,101550.50
2019-04-22T13:05:05.841Z,101543.98
2019-04-22T13:08:15.803Z,101528.66
2019-04-22T13:11:30.266Z,101525.11
2019-04-22T13:14:35.037Z,101524.34
2019-04-22T13:17:44.339Z,101527.11
2019-04-22T13:21:04.585Z,101523.69
2019-04-22T13:24:13.410Z,101512.67
2019-04-22T13:27:22.081Z,101514.66
2019-04-22T13:30:32.583Z,101516.61
2019-04-22T13:33:43.039Z,101503.81
2019-04-22T13:36:52.879Z,101495.55
2019-04-22T13:40:03.416Z,101509.77
2019-04-22T13:43:13.233Z,101500.95
2019-04-22T13:46:22.017Z,101496.98
2019-04-22T13:50:11.633Z,101492.02
2019-04-22T13:53:26.216Z,101495.33
2019-04-22T13:56:15.369Z,101486.20
2019-04-22T13:59:13.599Z,101480.87
2019-04-22T14:02:36.814Z,101481.92
2019-04-22T14:05:46.767Z,101477.20
2019-04-22T14:08:55.738Z,101468.36
2019-04-22T14:12:09.391Z,101470.45
2019-04-22T14:15:18.041Z,101471.87
2019-04-22T14:18:26.828Z,101468.16
2019-04-22T14:21:36.827Z,101485.48
2019-04-22T14:24:46.710Z,101466.74
2019-04-22T14:28:01.986Z,101466.98
2019-04-22T14:31:06.656Z,101454.39
2019-04-22T14:34:16.828Z,101457.88
2019-04-22T14:37:25.571Z,101436.54
2019-04-22T14:40:35.139Z,101445.10
2019-04-22T14:45:07.166Z,101444.65
2019-04-22T14:47:19.627Z,101444.17
2019-04-22T14:50:29.316Z,101439.97
2019-04-22T14:53:35.229Z,101423.42
2019-04-22T14:56:26.526Z,101437.66
2019-04-22T14:59:35.780Z,101437.22
2019-04-22T15:03:11.839Z,101435.27
2019-04-22T15:06:22.300Z,101431.92
2019-04-22T15:09:44.330Z,101423.86
2019-04-22T15:12:56.572Z,101417.77
2019-04-22T15:16:23.627Z,101421.12
2019-04-22T15:19:43.512Z,101432.03
2019-04-22T15:23:10.818Z,101405.09
2019-04-22T15:26:20.329Z,101416.20
2019-04-22T15:29:29.660Z,101419.29
2019-04-22T15:32:57.244Z,101414.72
2019-04-22T15:36:07.651Z,101408.87
2019-04-22T15:39:17.276Z,101416.18
2019-04-22T15:42:30.523Z,101420.55
2019-04-22T15:45:39.050Z,101414.93
2019-04-22T15:48:48.498Z,101400.23
2019-04-22T15:52:16.539Z,101415.30
2019-04-22T15:55:27.135Z,101407.05
2019-04-22T15:58:37.667Z,101399.83
2019-04-22T16:01:46.810Z,101406.80
2019-04-22T16:04:56.886Z,101407.11
2019-04-22T16:08:06.761Z,101400.72
2019-04-22T16:11:15.940Z,101403.03
2019-04-22T16:14:32.831Z,101403.77
2019-04-22T16:17:35.123Z,101401.42
2019-04-22T16:20:44.007Z,101400.72
2019-04-22T16:24:11.290Z,101401.38
2019-04-22T16:27:24.699Z,101393.66
2019-04-22T16:30:33.423Z,101400.17
2019-04-22T16:33:43.694Z,101395.45
2019-04-22T16:36:52.500Z,101384.66
2019-04-22T16:40:03.052Z,101387.99
2019-04-22T16:43:13.505Z,101380.53
2019-04-22T16:46:23.466Z,101375.67
2019-04-22T16:49:47.883Z,101380.61
2019-04-22T16:52:57.810Z,101383.68
2019-04-22T16:56:06.974Z,101377.59
2019-04-22T16:59:16.876Z,101382.04
2019-04-22T17:02:54.596Z,101378.07
2019-04-22T17:06:27.655Z,101366.80
2019-04-22T17:09:37.532Z,101366.65
2019-04-22T17:12:53.898Z,101353.41
2019-04-22T17:16:07.403Z,101364.77
2019-04-22T17:19:15.346Z,101358.28
2019-04-22T17:22:24.090Z,101372.84
2019-04-22T17:25:34.184Z,101373.22
2019-04-22T17:28:43.825Z,101363.34
2019-04-22T17:32:13.246Z,101366.86
2019-04-22T17:35:28.361Z,101375.09
2019-04-22T17:38:45.435Z,101379.78
2019-04-22T17:42:03.347Z,101371.89
2019-04-22T17:45:37.070Z,101369.48
2019-04-22T17:48:59.402Z,101371.83
2019-04-22T17:52:54.853Z,101379.37
2019-04-22T17:56:02.118Z,101381.17
2019-04-22T17:59:10.201Z,101373.19
2019-04-22T18:02:15.387Z,101380.56
2019-04-22T18:05:13.093Z,101382.59
2019-04-22T18:08:44.199Z,101391.93
2019-04-22T18:11:51.268Z,101380.71
2019-04-22T18:15:04.065Z,101391.45
2019-04-22T18:18:19.004Z,101392.17
2019-04-22T18:21:25.617Z,101397.49
2019-04-22T18:24:26.448Z,101397.40
2019-04-22T18:30:55.963Z,101395.81
2019-04-22T18:34:03.488Z,101405.49
2019-04-22T18:37:14.319Z,101399.20
2019-04-22T18:40:30.938Z,101399.20
2019-04-22T18:43:42.468Z,101402.39
2019-04-22T18:46:50.918Z,101401.30
2019-04-22T18:49:55.020Z,101414.67
2019-04-22T18:53:51.890Z,101422.40
2019-04-22T18:56:58.440Z,101416.61
2019-04-22T18:59:55.521Z,101418.50
2019-04-22T19:14:44.156Z,101437.48
2019-04-22T19:17:47.289Z,101443.05
2019-04-22T19:20:59.183Z,101448.61
2019-04-22T19:24:01.427Z,101446.52
2019-04-22T19:27:11.017Z,101454.92
2019-04-22T19:30:21.916Z,101457.18
2019-04-22T19:33:35.274Z,101460.66
2019-04-22T19:36:46.286Z,101461.97
2019-04-22T19:40:03.354Z,101466.23
2019-04-22T19:43:02.416Z,101461.20
2019-04-22T19:46:15.267Z,101474.89
2019-04-22T19:49:33.264Z,101471.06
2019-04-22T19:52:51.363Z,101472.69
2019-04-22T19:56:01.467Z,101479.77
2019-04-22T19:59:11.746Z,101483.23
2019-04-22T20:03:03.603Z,101488.59
2019-04-22T20:06:36.765Z,101488.80
2019-04-22T20:09:47.839Z,101487.16
2019-04-22T20:12:55.771Z,101477.54
2019-04-22T20:15:56.141Z,101491.41
2019-04-22T20:19:19.267Z,101502.95
2019-04-22T20:22:23.335Z,101493.23
2019-04-22T20:25:38.062Z,101496.48
2019-04-22T20:28:51.274Z,101503.92
2019-04-22T20:31:59.300Z,101503.08
2019-04-22T20:35:09.378Z,101493.31
2019-04-22T20:38:18.282Z,101496.38
2019-04-22T20:41:30.293Z,101497.73
2019-04-22T20:44:43.359Z,101491.68
2019-04-22T20:47:47.940Z,101498.59
2019-04-22T20:50:58.162Z,101486.53
2019-04-22T20:54:12.128Z,101480.78
2019-04-22T20:57:29.512Z,101507.28
2019-04-22T21:00:28.079Z,101481.93
2019-04-22T21:03:45.709Z,101483.41
2019-04-22T21:07:05.071Z,101480.58
2019-04-22T21:10:16.931Z,101482.35
2019-04-22T21:13:35.070Z,101477.72
2019-04-22T21:16:54.647Z,101479.95
2019-04-22T21:20:10.009Z,101471.98
2019-04-22T21:23:09.867Z,101471.34
2019-04-22T21:26:19.521Z,101472.39
2019-04-22T21:29:32.019Z,101468.19
2019-04-22T21:33:11.396Z,101465.67
2019-04-22T21:36:42.996Z,101453.63
2019-04-22T21:39:44.839Z,101455.04
2019-04-22T21:43:01.713Z,101457.03
2019-04-22T21:46:11.805Z,101450.11
2019-04-22T21:49:24.532Z,101449.99
2019-04-22T21:52:28.108Z,101437.95
2019-04-22T21:55:43.757Z,101440.03
2019-04-22T21:59:03.403Z,101437.52
2019-04-22T22:02:28.080Z,101433.95
2019-04-22T22:05:42.380Z,101430.50
2019-04-22T22:09:04.061Z,101435.38
2019-04-22T22:12:02.660Z,101423.33
2019-04-22T22:15:20.996Z,101414.22
2019-04-22T22:18:25.311Z,101412.53
2019-04-22T22:21:49.638Z,101411.92
2019-04-22T22:25:01.421Z,101407.85
2019-04-22T22:28:29.418Z,101405.65
2019-04-22T22:31:29.452Z,101406.45
2019-04-22T22:34:34.738Z,101393.48
2019-04-22T22:37:37.514Z,101391.28
2019-04-22T22:40:36.744Z,101376.28
2019-04-22T22:43:49.086Z,101378.02
2019-04-22T22:47:10.134Z,101378.66
2019-04-22T22:50:25.991Z,101371.95
2019-04-22T22:54:06.313Z,101372.45
2019-04-22T22:57:11.996Z,101367.18
2019-04-22T23:00:06.317Z,101369.67
2019-04-22T23:03:41.643Z,101359.10
2019-04-22T23:06:32.761Z,101354.19
2019-04-22T23:09:38.740Z,101359.63
2019-04-22T23:13:08.462Z,101351.81
2019-04-22T23:15:52.564Z,101351.81
2019-04-22T23:19:05.141Z,101345.89
2019-04-22T23:22:21.973Z,101354.72
2019-04-22T23:25:53.599Z,101340.67
2019-04-22T23:28:58.939Z,101344.40
2019-04-22T23:32:09.183Z,101334.79
2019-04-22T23:35:36.657Z,101341.39
2019-04-22T23:38:54.842Z,101336.15
2019-04-22T23:42:06.434Z,101326.13
2019-04-22T23:45:09.302Z,101335.41
2019-04-22T23:48:15.164Z,101328.89
2019-04-22T23:51:29.649Z,101325.60
2019-04-22T23:54:53.851Z,101334.57
2019-04-22T23:58:03.519Z,101332.55
